Time;durP1;ratioP1;P1;durP2;ratioP2;P2;SDS_P1;SDS_P2;PMS_P1;PMS_P2;Temp;Humidity;BMP_temperature;BMP_pressure;BME280_temperature;BME280_humidity;BME280_pressure;Samples;Min_cycle;Max_cycle;Signal;HPM_P1;HPM_P2
2021/12/15 00:01:49;;;;;;;;;;;;;;;4.53;60.82;101025.41;4382384;32;34529;-81
2021/12/15 00:04:19;;;;;;;;;;;;;;;4.57;60.59;101026.09;4358340;32;32521;-81
2021/12/15 00:06:46;;;;;;;;;;;;;;;4.64;60.47;101012.53;4382860;32;33334;-80
2021/12/15 00:09:13;;;;;;;;;;;;;;;4.60;60.21;101016.25;4369981;32;33482;-81
2021/12/15 00:11:42;;;;;;;;;;;;;;;4.49;60.63;101012.44;4394866;32;35213;-81
2021/12/15 00:14:13;;;;;;;;;;;;;;;4.59;60.52;101014.56;4375577;32;32879;-81
2021/12/15 00:16:41;;;;;;;;;;;;;;;4.65;60.43;101014.25;4381926;32;32648;-81
2021/12/15 00:19:08;;;;;;;;;;;;;;;4.70;60.03;101014.03;4383752;32;34618;-81
2021/12/15 00:21:36;;;;;;;;;;;;;;;4.68;60.37;101006.19;4382239;32;34932;-81
2021/12/15 00:24:04;;;;;;;;;;;;;;;4.56;60.74;101008.59;4371756;32;34785;-81
2021/12/15 00:26:32;;;;;;;;;;;;;;;4.74;60.41;101007.66;4383253;32;33572;-81
2021/12/15 00:29:01;;;;;;;;;;;;;;;4.82;60.06;101005.47;4382297;32;33224;-81
2021/12/15 00:31:32;;;;;;;;;;;;;;;4.85;59.97;101003.53;4381977;32;35135;-81
2021/12/15 00:34:00;;;;;;;;;;;;;;;4.78;60.27;101009.19;4382043;32;34813;-81
2021/12/15 00:36:28;;;;;;;;;;;;;;;4.79;60.18;101005.66;4382867;32;33963;-81
2021/12/15 00:38:55;;;;;;;;;;;;;;;4.20;62.20;101011.28;4382068;32;33581;-81
2021/12/15 00:41:23;;;;;;;;;;;;;;;4.61;61.13;101014.50;4374120;32;35318;-81
2021/12/15 00:43:50;;;;;;;;;;;;;;;4.26;62.12;101021.50;4382171;32;34368;-81
2021/12/15 00:46:18;;;;;;;;;;;;;;;4.58;61.36;101018.12;4381424;32;33381;-81
2021/12/15 00:48:47;;;;;;;;;;;;;;;4.88;60.07;101018.31;4382138;32;34138;-81
2021/12/15 00:51:16;;;;;;;;;;;;;;;4.95;59.48;101025.00;4382023;32;34460;-81
2021/12/15 00:53:43;;;;;;;;;;;;;;;4.95;59.35;101030.25;4369762;32;35368;-80
2021/12/15 00:56:11;;;;;;;;;;;;;;;4.83;59.71;101030.91;4369934;32;31563;-81
2021/12/15 00:58:38;;;;;;;;;;;;;;;4.75;59.50;101028.66;4381821;32;32455;-81
2021/12/15 01:01:06;;;;;;;;;;;;;;;4.67;59.73;101027.34;4381564;32;34958;-81
2021/12/15 01:03:34;;;;;;;;;;;;;;;4.28;60.84;101024.06;4381808;32;34675;-81
2021/12/15 01:06:07;;;;;;;;;;;;;;;3.75;62.49;101033.66;4382936;32;33462;-81
2021/12/15 01:08:39;;;;;;;;;;;;;;;3.79;62.48;101036.09;4381683;32;34330;-81
2021/12/15 01:22:25;;;;;;;;;;;;;;;3.09;64.55;101042.00;4341415;32;35204;-81
2021/12/15 01:25:01;;;;;;;;;;;;;;;3.15;64.12;101039.94;4349785;32;34980;-81
2021/12/15 01:27:28;;;;;;;;;;;;;;;2.98;64.29;101045.09;4336774;32;32957;-81
2021/12/15 01:29:56;;;;;;;;;;;;;;;2.88;64.45;101041.19;4340129;32;34704;-81
2021/12/15 01:32:23;;;;;;;;;;;;;;;2.71;65.14;101052.47;4349664;32;35295;-80
2021/12/15 01:34:50;;;;;;;;;;;;;;;2.51;65.74;101044.53;4330004;32;34528;-81
2021/12/15 01:37:18;;;;;;;;;;;;;;;2.47;65.97;101041.22;4341632;32;32194;-81
2021/12/15 01:39:46;;;;;;;;;;;;;;;2.47;65.71;101037.72;4340899;32;33116;-81
2021/12/15 01:42:13;;;;;;;;;;;;;;;2.49;65.73;101038.50;4348715;32;33837;-81
2021/12/15 01:47:27;;;;;;;;;;;;;;;2.64;65.24;101037.88;4340653;32;33433;-81
2021/12/15 01:49:55;;;;;;;;;;;;;;;2.72;64.71;101039.25;4345858;32;34482;-81
2021/12/15 01:52:27;;;;;;;;;;;;;;;2.57;65.14;101039.91;4357642;32;35151;-80
2021/12/15 01:55:00;;;;;;;;;;;;;;;2.61;65.25;101048.53;4383432;32;33745;-81
2021/12/15 01:57:28;;;;;;;;;;;;;;;2.55;65.54;101046.16;4383329;32;32169;-81
2021/12/15 01:59:56;;;;;;;;;;;;;;;2.72;65.16;101047.13;4384767;32;34437;-80
2021/12/15 02:02:24;;;;;;;;;;;;;;;2.67;65.26;101046.50;4383202;32;34837;-81
2021/12/15 02:04:52;;;;;;;;;;;;;;;2.69;65.11;101047.28;4383345;32;35234;-80
2021/12/15 02:07:20;;;;;;;;;;;;;;;2.62;65.53;101047.59;4370472;32;33984;-81
2021/12/15 02:12:21;;;;;;;;;;;;;;;2.58;65.64;101041.63;4374687;32;34932;-80
2021/12/15 02:14:49;;;;;;;;;;;;;;;2.38;66.68;101049.47;4384457;32;34806;-81
2021/12/15 02:17:17;;;;;;;;;;;;;;;2.30;66.89;101040.19;4382337;32;31277;-80
2021/12/15 02:19:44;;;;;;;;;;;;;;;2.16;67.19;101047.78;4382850;32;34431;-80
2021/12/15 02:22:13;;;;;;;;;;;;;;;2.03;67.82;101036.91;4384423;32;36214;-81
2021/12/15 02:24:42;;;;;;;;;;;;;;;2.07;67.89;101030.63;4371119;32;35234;-80
2021/12/15 02:27:12;;;;;;;;;;;;;;;2.03;68.01;101028.19;4370761;32;34031;-81
2021/12/15 02:29:42;;;;;;;;;;;;;;;1.85;68.62;101037.63;4374526;32;34082;-80
2021/12/15 02:32:32;;;;;;;;;;;;;;;2.15;67.78;101043.44;4383106;32;35766;-80
2021/12/15 02:37:54;;;;;;;;;;;;;;;2.34;67.00;101042.62;4381495;32;32624;-80
2021/12/15 02:40:23;;;;;;;;;;;;;;;1.71;69.45;101045.19;4375593;32;33989;-81
2021/12/15 02:42:50;;;;;;;;;;;;;;;2.19;67.82;101048.50;4388968;32;34606;-81
2021/12/15 02:45:21;;;;;;;;;;;;;;;2.22;67.66;101044.88;4369521;32;35143;-80
2021/12/15 02:47:49;;;;;;;;;;;;;;;2.11;68.16;101053.22;4381680;32;32600;-80
2021/12/15 02:50:18;;;;;;;;;;;;;;;2.25;67.74;101057.91;4371596;32;33677;-80
2021/12/15 02:52:45;;;;;;;;;;;;;;;2.39;67.32;101037.19;4390088;32;34723;-80
2021/12/15 02:55:14;;;;;;;;;;;;;;;2.31;67.64;101041.88;4386690;32;33955;-81
2021/12/15 02:57:41;;;;;;;;;;;;;;;2.49;67.02;101035.88;4356552;32;32505;-80
2021/12/15 03:00:17;;;;;;;;;;;;;;;2.64;66.55;101040.50;4382149;32;34910;-80
2021/12/15 03:05:28;;;;;;;;;;;;;;;2.50;66.81;101042.84;4381773;32;35334;-80
2021/12/15 03:08:12;;;;;;;;;;;;;;;2.88;65.64;101033.28;4369965;32;34359;-80
2021/12/15 03:16:13;;;;;;;;;;;;;;;3.23;64.38;101026.47;4382964;32;34530;-80
2021/12/15 03:18:41;;;;;;;;;;;;;;;3.03;64.99;101019.47;4369964;32;33301;-80
2021/12/15 03:21:10;;;;;;;;;;;;;;;3.37;64.10;101022.28;4385674;32;33462;-81
2021/12/15 03:23:47;;;;;;;;;;;;;;;3.42;63.64;101011.56;4370005;32;35689;-81
2021/12/15 03:26:17;;;;;;;;;;;;;;;3.50;63.48;101014.69;4383371;32;35023;-81
2021/12/15 03:37:09;;;;;;;;;;;;;;;2.95;65.72;101003.16;4383042;32;35433;-81
2021/12/15 03:39:40;;;;;;;;;;;;;;;3.38;64.45;101010.84;4394801;32;32350;-81
2021/12/15 03:42:09;;;;;;;;;;;;;;;3.59;63.78;101012.47;4370832;32;34338;-81
2021/12/15 03:44:39;;;;;;;;;;;;;;;3.45;64.21;101009.66;4383016;32;35171;-81
2021/12/15 03:47:08;;;;;;;;;;;;;;;3.78;63.34;101005.44;4382886;32;35145;-81
2021/12/15 03:49:36;;;;;;;;;;;;;;;3.88;62.82;101009.31;4382587;32;33863;-81
2021/12/15 03:52:04;;;;;;;;;;;;;;;3.75;63.07;101015.25;4382786;32;34142;-81
2021/12/15 03:54:33;;;;;;;;;;;;;;;3.82;62.80;101019.31;4382140;32;35128;-81
2021/12/15 03:57:00;;;;;;;;;;;;;;;4.01;62.30;101025.41;4360151;32;32608;-80
2021/12/15 03:59:28;;;;;;;;;;;;;;;3.99;62.20;101028.09;4387303;32;32707;-81
2021/12/15 04:01:56;;;;;;;;;;;;;;;4.06;61.91;101021.59;4383327;32;33135;-81
2021/12/15 04:04:24;;;;;;;;;;;;;;;4.09;61.68;101010.94;4372393;32;34273;-81
2021/12/15 04:06:51;;;;;;;;;;;;;;;4.14;61.34;101011.56;4382504;32;34541;-81
2021/12/15 04:09:18;;;;;;;;;;;;;;;4.19;61.09;101006.06;4382292;32;34071;-80
2021/12/15 04:11:46;;;;;;;;;;;;;;;4.18;60.93;101007.88;4381682;32;34942;-81
2021/12/15 04:14:19;;;;;;;;;;;;;;;4.22;60.74;101019.06;4381701;32;35082;-81
2021/12/15 04:16:58;;;;;;;;;;;;;;;4.20;60.52;101026.22;4369938;32;35374;-81
2021/12/15 04:19:26;;;;;;;;;;;;;;;4.21;60.45;101033.19;4394602;32;32905;-81
2021/12/15 04:21:53;;;;;;;;;;;;;;;4.27;59.78;101035.53;4381653;32;33162;-81
2021/12/15 04:24:23;;;;;;;;;;;;;;;4.08;60.23;101030.28;4369699;32;34530;-81
2021/12/15 04:26:51;;;;;;;;;;;;;;;4.10;60.09;101027.59;4382101;32;35423;-81
2021/12/15 04:29:18;;;;;;;;;;;;;;;4.04;60.00;101026.09;4382247;32;33081;-81
2021/12/15 04:31:54;;;;;;;;;;;;;;;3.99;59.96;101022.81;4371914;32;32266;-81
2021/12/15 04:34:22;;;;;;;;;;;;;;;3.98;59.95;101017.66;4369779;32;33933;-80
2021/12/15 04:36:50;;;;;;;;;;;;;;;3.87;60.18;101027.84;4384572;32;34188;-81
2021/12/15 04:39:20;;;;;;;;;;;;;;;4.04;59.71;101041.03;4382361;32;33116;-81
2021/12/15 04:41:50;;;;;;;;;;;;;;;4.00;59.62;101045.62;4369677;32;33576;-80
2021/12/15 04:44:18;;;;;;;;;;;;;;;4.18;58.98;101044.75;4370000;32;33592;-80
2021/12/15 04:46:57;;;;;;;;;;;;;;;4.03;59.47;101044.59;4382131;32;34775;-81
2021/12/15 04:49:26;;;;;;;;;;;;;;;3.74;60.55;101046.00;4383511;32;33210;-80
2021/12/15 04:54:39;;;;;;;;;;;;;;;3.45;61.36;101054.37;4395727;27;35999;-90
2021/12/15 04:57:08;;;;;;;;;;;;;;;3.34;61.80;101043.44;4382800;32;34284;-92
2021/12/15 04:59:36;;;;;;;;;;;;;;;3.29;62.35;101055.09;4382121;32;33037;-91
2021/12/15 05:02:04;;;;;;;;;;;;;;;3.39;62.12;101059.03;4372031;32;32845;-89
2021/12/15 05:04:33;;;;;;;;;;;;;;;3.54;61.79;101059.22;4395605;32;34013;-90
2021/12/15 05:07:00;;;;;;;;;;;;;;;3.57;61.74;101052.94;4382696;32;33979;-89
2021/12/15 05:09:28;;;;;;;;;;;;;;;3.64;61.47;101055.25;4402363;32;31550;-88
2021/12/15 05:11:56;;;;;;;;;;;;;;;3.71;61.32;101066.31;4384328;32;34017;-90
2021/12/15 05:14:23;;;;;;;;;;;;;;;3.67;61.46;101068.25;4382761;32;35501;-92
2021/12/15 05:16:51;;;;;;;;;;;;;;;3.64;61.66;101076.28;4369677;32;34825;-92
2021/12/15 05:19:20;;;;;;;;;;;;;;;3.76;61.35;101075.72;4382532;32;33680;-90
2021/12/15 05:21:50;;;;;;;;;;;;;;;3.71;61.60;101076.84;4371117;32;34184;-91
2021/12/15 05:24:30;;;;;;;;;;;;;;;3.90;61.00;101081.22;4385235;32;34564;-92
2021/12/15 05:27:12;;;;;;;;;;;;;;;3.76;61.45;101078.34;4384534;32;34545;-91
2021/12/15 05:29:40;;;;;;;;;;;;;;;3.99;60.69;101077.28;4384970;32;32434;-92
2021/12/15 05:32:09;;;;;;;;;;;;;;;4.07;60.35;101086.50;4382982;32;33803;-84
2021/12/15 05:34:39;;;;;;;;;;;;;;;3.98;60.60;101094.00;4373531;32;34321;-92
2021/12/15 05:37:08;;;;;;;;;;;;;;;3.87;61.04;101089.22;4369787;32;34444;-86
2021/12/15 05:39:36;;;;;;;;;;;;;;;3.95;60.94;101092.34;4390932;32;33865;-85
2021/12/15 05:42:03;;;;;;;;;;;;;;;3.57;62.29;101095.91;4382649;32;34362;-85
2021/12/15 05:44:31;;;;;;;;;;;;;;;3.53;62.25;101096.97;4383702;32;33805;-86
2021/12/15 05:46:59;;;;;;;;;;;;;;;3.79;61.53;101099.25;4390787;32;34779;-85
2021/12/15 05:49:27;;;;;;;;;;;;;;;3.78;61.57;101101.97;4369835;32;32737;-86
2021/12/15 05:51:55;;;;;;;;;;;;;;;3.56;61.92;101104.72;4395858;32;34150;-86
2021/12/15 05:54:22;;;;;;;;;;;;;;;3.46;61.94;101113.06;4369751;32;35487;-85
2021/12/15 05:56:50;;;;;;;;;;;;;;;3.14;63.36;101117.09;4373885;32;34067;-87
2021/12/15 05:59:17;;;;;;;;;;;;;;;3.11;63.70;101119.00;4396600;32;34640;-86
2021/12/15 06:01:45;;;;;;;;;;;;;;;3.16;63.53;101123.19;4384883;32;34402;-86
2021/12/15 06:04:13;;;;;;;;;;;;;;;3.37;63.02;101119.62;4383740;32;33563;-87
2021/12/15 06:06:40;;;;;;;;;;;;;;;3.11;63.77;101126.91;4370711;32;33672;-87
2021/12/15 06:09:08;;;;;;;;;;;;;;;3.01;64.10;101126.44;4384800;32;34010;-85
2021/12/15 06:11:36;;;;;;;;;;;;;;;2.93;64.50;101125.91;4371019;32;34288;-87
2021/12/15 06:14:05;;;;;;;;;;;;;;;3.04;64.27;101139.47;4377485;32;33658;-87
2021/12/15 06:16:33;;;;;;;;;;;;;;;2.90;64.85;101146.22;4390570;32;34803;-85
2021/12/15 06:19:02;;;;;;;;;;;;;;;3.11;64.20;101156.69;4384868;32;32895;-84
2021/12/15 06:21:31;;;;;;;;;;;;;;;3.01;64.24;101158.00;4395560;32;33624;-83
2021/12/15 06:23:59;;;;;;;;;;;;;;;2.48;65.67;101163.75;4394808;32;35408;-88
2021/12/15 06:26:26;;;;;;;;;;;;;;;2.49;66.29;101169.81;4372140;32;34529;-85
2021/12/15 06:28:54;;;;;;;;;;;;;;;2.70;65.53;101158.47;4383553;32;32026;-84
2021/12/15 06:31:21;;;;;;;;;;;;;;;2.65;65.56;101153.41;4383599;32;33473;-87
2021/12/15 06:33:49;;;;;;;;;;;;;;;2.58;65.28;101156.31;4370512;32;34857;-87
2021/12/15 06:36:20;;;;;;;;;;;;;;;2.15;66.89;101162.41;4371293;32;34356;-86
2021/12/15 06:38:50;;;;;;;;;;;;;;;2.42;66.23;101160.47;4369736;32;32291;-85
2021/12/15 06:41:19;;;;;;;;;;;;;;;2.34;66.50;101170.44;4394790;32;32823;-85
2021/12/15 06:43:51;;;;;;;;;;;;;;;2.28;67.02;101166.28;4372427;32;34912;-96
2021/12/15 06:59:59;;;;;;;;;;;;;;;3.13;64.89;101168.00;4383531;32;32304;-90
2021/12/15 07:02:27;;;;;;;;;;;;;;;3.24;64.40;101180.69;4382006;32;32571;-90
2021/12/15 07:04:57;;;;;;;;;;;;;;;3.25;64.14;101178.00;4392737;32;36198;-90
2021/12/15 07:07:24;;;;;;;;;;;;;;;3.40;63.97;101189.66;4380758;32;33905;-89
2021/12/15 07:09:53;;;;;;;;;;;;;;;3.20;64.29;101190.47;4390265;32;32322;-89
2021/12/15 07:12:20;;;;;;;;;;;;;;;3.47;63.47;101194.56;4394630;32;33875;-90
2021/12/15 07:14:47;;;;;;;;;;;;;;;3.69;62.92;101197.97;4380702;32;33825;-91
2021/12/15 07:17:21;;;;;;;;;;;;;;;3.69;62.85;101195.34;4371005;32;34518;-88
2021/12/15 07:20:05;;;;;;;;;;;;;;;3.22;63.49;101195.69;4383964;32;32974;-89
2021/12/15 07:22:43;;;;;;;;;;;;;;;3.64;62.82;101194.69;4371370;32;32165;-88
2021/12/15 07:25:12;;;;;;;;;;;;;;;3.67;62.46;101194.56;4372782;32;34839;-88
2021/12/15 07:27:41;;;;;;;;;;;;;;;3.82;62.13;101201.78;4373442;32;32730;-89
2021/12/15 07:30:08;;;;;;;;;;;;;;;3.85;61.92;101200.78;4371319;32;33406;-91
2021/12/15 07:32:35;;;;;;;;;;;;;;;3.71;62.38;101195.28;4382518;32;33044;-89
2021/12/15 07:35:04;;;;;;;;;;;;;;;3.87;61.93;101196.31;4395299;32;35034;-88
2021/12/15 07:37:32;;;;;;;;;;;;;;;3.85;61.93;101198.12;4373203;32;32803;-88
2021/12/15 07:40:00;;;;;;;;;;;;;;;3.98;61.57;101189.63;4372355;32;32656;-89
2021/12/15 07:42:42;;;;;;;;;;;;;;;4.08;61.59;101193.53;4371803;32;32906;-88
2021/12/15 07:45:11;;;;;;;;;;;;;;;4.18;61.33;101199.25;4394057;32;35939;-89
2021/12/15 07:47:39;;;;;;;;;;;;;;;3.89;62.42;101205.81;4384219;32;34047;-89
2021/12/15 07:50:07;;;;;;;;;;;;;;;4.15;62.28;101202.87;4392549;32;33363;-89
2021/12/15 07:52:34;;;;;;;;;;;;;;;3.64;64.64;101205.22;4383676;32;34934;-90
2021/12/15 07:55:02;;;;;;;;;;;;;;;3.68;65.69;101203.31;4383958;32;35084;-89
2021/12/15 07:57:30;;;;;;;;;;;;;;;3.75;65.80;101210.88;4391245;32;34525;-88
2021/12/15 07:59:57;;;;;;;;;;;;;;;3.92;65.44;101207.47;4393868;32;33150;-87
2021/12/15 08:02:25;;;;;;;;;;;;;;;3.88;66.17;101213.81;4384842;32;33805;-88
2021/12/15 08:04:54;;;;;;;;;;;;;;;3.96;66.21;101217.81;4371799;32;35071;-90
2021/12/15 08:07:21;;;;;;;;;;;;;;;4.13;65.92;101222.31;4388812;32;34506;-88
2021/12/15 08:09:50;;;;;;;;;;;;;;;4.17;65.79;101219.47;4395394;32;32901;-89
2021/12/15 08:12:31;;;;;;;;;;;;;;;4.34;65.38;101229.25;4392626;32;32942;-90
2021/12/15 08:14:59;;;;;;;;;;;;;;;4.28;65.72;101232.16;4370050;32;35597;-90
2021/12/15 08:17:26;;;;;;;;;;;;;;;4.48;65.21;101235.59;4378843;32;33344;-90
2021/12/15 08:19:56;;;;;;;;;;;;;;;4.45;65.36;101233.06;4389125;32;33863;-90
2021/12/15 08:22:23;;;;;;;;;;;;;;;4.44;65.68;101246.34;4393458;32;33698;-90
2021/12/15 08:24:51;;;;;;;;;;;;;;;4.65;65.23;101240.94;4369104;32;35292;-89
2021/12/15 08:27:25;;;;;;;;;;;;;;;4.74;65.35;101248.41;4390038;32;34549;-90
2021/12/15 08:29:53;;;;;;;;;;;;;;;4.78;65.27;101252.59;4392707;32;33118;-90
2021/12/15 08:32:20;;;;;;;;;;;;;;;4.54;66.62;101259.00;4396311;32;34194;-91
2021/12/15 08:34:47;;;;;;;;;;;;;;;4.72;66.34;101259.94;4392872;32;35075;-87
2021/12/15 08:37:15;;;;;;;;;;;;;;;4.88;65.69;101271.44;4395609;32;33029;-85
2021/12/15 08:39:46;;;;;;;;;;;;;;;5.17;64.69;101274.41;4370417;32;33387;-87
2021/12/15 08:42:14;;;;;;;;;;;;;;;5.07;64.92;101270.50;4382579;32;32440;-86
2021/12/15 08:44:42;;;;;;;;;;;;;;;4.98;65.42;101273.56;4393401;32;34953;-83
2021/12/15 08:47:16;;;;;;;;;;;;;;;5.13;65.32;101267.56;4392750;32;34408;-88
2021/12/15 08:49:53;;;;;;;;;;;;;;;5.09;65.74;101267.78;4382913;32;32810;-87
2021/12/15 08:52:21;;;;;;;;;;;;;;;5.05;65.48;101272.34;4397126;32;34797;-88
2021/12/15 08:54:50;;;;;;;;;;;;;;;5.16;65.35;101270.06;4390806;32;36046;-92
2021/12/15 08:57:17;;;;;;;;;;;;;;;4.99;66.16;101267.37;4371313;32;33358;-89
2021/12/15 08:59:45;;;;;;;;;;;;;;;5.13;66.03;101272.84;4384047;32;32993;-91
2021/12/15 09:02:13;;;;;;;;;;;;;;;5.42;65.25;101267.00;4385583;32;32415;-88
2021/12/15 09:04:41;;;;;;;;;;;;;;;5.33;65.78;101263.94;4372476;32;34435;-88
2021/12/15 09:07:08;;;;;;;;;;;;;;;5.52;65.32;101261.16;4395433;32;34517;-88
2021/12/15 09:09:37;;;;;;;;;;;;;;;5.63;65.04;101271.19;4383740;32;32564;-90
2021/12/15 09:12:08;;;;;;;;;;;;;;;5.47;65.49;101258.84;4385578;32;33999;-88
2021/12/15 09:14:37;;;;;;;;;;;;;;;5.69;64.93;101261.16;4396517;32;34736;-93
2021/12/15 09:17:05;;;;;;;;;;;;;;;5.62;65.34;101254.50;4394225;32;34112;-93
2021/12/15 09:19:34;;;;;;;;;;;;;;;5.82;64.94;101253.50;4385756;32;34122;-88
2021/12/15 09:22:02;;;;;;;;;;;;;;;5.79;64.78;101262.41;4390047;32;34190;-90
2021/12/15 09:24:31;;;;;;;;;;;;;;;5.78;65.24;101254.56;4384553;32;35920;-95
2021/12/15 09:26:59;;;;;;;;;;;;;;;5.92;65.13;101258.25;4387129;32;35348;-94
2021/12/15 09:29:26;;;;;;;;;;;;;;;5.78;65.40;101251.94;4386597;32;32428;-88
2021/12/15 09:31:54;;;;;;;;;;;;;;;5.76;65.19;101259.91;4382094;32;34760;-87
2021/12/15 09:34:22;;;;;;;;;;;;;;;5.99;64.52;101259.63;4379811;32;33523;-89
2021/12/15 09:36:50;;;;;;;;;;;;;;;6.38;63.39;101256.63;4384905;32;34323;-87
2021/12/15 09:39:20;;;;;;;;;;;;;;;6.64;62.55;101251.63;4391172;32;33086;-87
2021/12/15 09:41:49;;;;;;;;;;;;;;;6.64;62.82;101250.78;4359235;32;32941;-89
2021/12/15 09:44:20;;;;;;;;;;;;;;;6.64;62.82;101248.16;4385557;32;34945;-93
2021/12/15 10:05:31;;;;;;;;;;;;;;;6.95;61.25;101248.13;4390380;32;33024;-91
2021/12/15 10:10:47;;;;;;;;;;;;;;;7.22;60.81;101252.72;4397444;32;34214;-90
2021/12/15 10:19:46;;;;;;;;;;;;;;;7.55;59.98;101244.63;4395755;32;34959;-91
2021/12/15 10:22:44;;;;;;;;;;;;;;;7.54;60.06;101251.69;4374112;32;33758;-93
2021/12/15 10:25:20;;;;;;;;;;;;;;;7.47;60.53;101254.81;4359748;32;33604;-89
2021/12/15 10:28:18;;;;;;;;;;;;;;;7.83;59.21;101253.47;4395433;32;33909;-92
2021/12/15 10:31:23;;;;;;;;;;;;;;;8.06;59.26;101246.78;4394105;32;35514;-91
2021/12/15 10:34:14;;;;;;;;;;;;;;;8.37;57.48;101247.50;4396198;32;34260;-94
2021/12/15 10:37:05;;;;;;;;;;;;;;;8.39;57.81;101252.72;4370823;32;32330;-91
2021/12/15 10:39:33;;;;;;;;;;;;;;;8.26;58.25;101252.62;4384167;32;34234;-91
2021/12/15 10:42:29;;;;;;;;;;;;;;;8.56;57.73;101246.25;4386022;32;34912;-91
2021/12/15 10:45:08;;;;;;;;;;;;;;;8.24;58.92;101257.16;4372271;32;33568;-91
2021/12/15 10:47:48;;;;;;;;;;;;;;;8.42;57.60;101252.50;4395537;32;32910;-89
2021/12/15 10:50:18;;;;;;;;;;;;;;;8.51;57.21;101247.50;4379301;32;32560;-90
2021/12/15 10:52:51;;;;;;;;;;;;;;;8.26;57.33;101252.62;4399235;32;34330;-91
2021/12/15 10:55:27;;;;;;;;;;;;;;;8.40;56.90;101251.75;4374437;32;34958;-88
2021/12/15 10:58:01;;;;;;;;;;;;;;;8.59;56.91;101248.72;4386451;32;33154;-90
2021/12/15 11:00:35;;;;;;;;;;;;;;;8.81;56.25;101245.56;4386820;32;33220;-92
2021/12/15 11:03:04;;;;;;;;;;;;;;;8.68;56.65;101252.56;4391078;32;35372;-93
2021/12/15 11:05:32;;;;;;;;;;;;;;;8.53;56.48;101245.59;4396166;32;34113;-92
2021/12/15 11:08:02;;;;;;;;;;;;;;;8.65;55.69;101248.34;4374268;32;33921;-91
2021/12/15 11:10:35;;;;;;;;;;;;;;;8.54;56.58;101250.78;4390417;32;33907;-88
2021/12/15 11:13:11;;;;;;;;;;;;;;;8.69;55.99;101241.88;4372352;32;34049;-90
2021/12/15 11:15:50;;;;;;;;;;;;;;;8.68;56.11;101252.56;4380090;32;34965;-88
2021/12/15 11:18:24;;;;;;;;;;;;;;;9.21;54.82;101242.88;4398578;32;33079;-91
2021/12/15 11:20:59;;;;;;;;;;;;;;;9.10;55.12;101242.69;4394630;32;33254;-96
2021/12/15 11:23:28;;;;;;;;;;;;;;;9.48;54.06;101246.34;4385695;32;34519;-89
2021/12/15 11:26:03;;;;;;;;;;;;;;;9.48;53.70;101232.22;4391971;32;34646;-90
2021/12/15 11:28:42;;;;;;;;;;;;;;;9.47;53.66;101234.00;4392046;32;32167;-89
2021/12/15 11:31:15;;;;;;;;;;;;;;;9.62;53.46;101237.47;4370351;32;878529;-89
2021/12/15 11:33:50;;;;;;;;;;;;;;;9.64;53.95;101235.53;4384879;32;34861;-89
2021/12/15 11:36:19;;;;;;;;;;;;;;;9.81;53.89;101236.09;4392712;32;35446;-89
2021/12/15 11:38:47;;;;;;;;;;;;;;;9.76;53.37;101242.69;4386480;32;32656;-89
2021/12/15 11:41:16;;;;;;;;;;;;;;;9.38;53.90;101241.75;4391236;32;32778;-90
2021/12/15 11:43:58;;;;;;;;;;;;;;;9.54;53.82;101237.94;4379201;32;35421;-89
2021/12/15 11:46:31;;;;;;;;;;;;;;;9.76;53.14;101237.37;4382022;32;34689;-90
2021/12/15 11:49:23;;;;;;;;;;;;;;;9.83;52.84;101242.16;4392032;32;34004;-91
2021/12/15 11:52:14;;;;;;;;;;;;;;;9.70;53.02;101235.09;4393364;32;33776;-90
2021/12/15 11:54:45;;;;;;;;;;;;;;;9.37;53.30;101238.22;4376183;32;35801;-90
2021/12/15 11:57:18;;;;;;;;;;;;;;;9.45;53.39;101227.13;4403106;32;35260;-87
2021/12/15 11:59:49;;;;;;;;;;;;;;;9.69;53.20;101226.31;4391921;32;33321;-90
2021/12/15 12:02:37;;;;;;;;;;;;;;;9.73;53.26;101232.25;4404561;32;33161;-92
2021/12/15 12:05:07;;;;;;;;;;;;;;;9.89;52.46;101231.09;4407596;32;34598;-88
2021/12/15 12:07:42;;;;;;;;;;;;;;;9.34;53.79;101233.13;4395128;32;34082;-88
2021/12/15 12:10:18;;;;;;;;;;;;;;;9.70;52.94;101230.66;4399515;32;33464;-92
2021/12/15 12:12:52;;;;;;;;;;;;;;;9.64;53.22;101220.44;4392325;32;34522;-93
2021/12/15 12:15:22;;;;;;;;;;;;;;;9.76;52.70;101227.59;4412193;32;36213;-89
2021/12/15 12:17:53;;;;;;;;;;;;;;;9.82;52.48;101219.19;4404234;32;33835;-93
2021/12/15 12:20:26;;;;;;;;;;;;;;;10.05;52.54;101213.19;4398589;32;32280;-92
2021/12/15 12:22:55;;;;;;;;;;;;;;;10.05;52.14;101212.31;4408226;32;33961;-88
2021/12/15 12:25:24;;;;;;;;;;;;;;;10.18;52.02;101213.19;4397024;32;35459;-89
2021/12/15 12:27:54;;;;;;;;;;;;;;;9.95;52.20;101214.75;4400789;32;34764;-90
2021/12/15 12:30:24;;;;;;;;;;;;;;;10.18;51.71;101214.00;4397119;32;32762;-93
2021/12/15 12:32:53;;;;;;;;;;;;;;;10.16;51.63;101218.59;4393484;32;33956;-91
2021/12/15 12:35:32;;;;;;;;;;;;;;;10.05;51.82;101217.63;4386357;32;34264;-91
2021/12/15 12:38:04;;;;;;;;;;;;;;;10.23;51.67;101211.03;4387472;32;34688;-90
2021/12/15 12:40:35;;;;;;;;;;;;;;;10.11;51.62;101217.22;4385516;32;33361;-90
2021/12/15 12:43:20;;;;;;;;;;;;;;;10.25;51.53;101222.41;4382228;32;34345;-90
2021/12/15 12:45:54;;;;;;;;;;;;;;;10.03;51.91;101224.88;4396350;32;34991;-90
2021/12/15 12:48:44;;;;;;;;;;;;;;;10.04;51.91;101224.78;4392436;32;35045;-90
2021/12/15 12:59:27;;;;;;;;;;;;;;;10.01;52.26;101222.28;4341800;32;33409;-90
2021/12/15 13:01:56;;;;;;;;;;;;;;;10.11;51.78;101214.56;4337258;32;34978;-88
2021/12/15 13:04:35;;;;;;;;;;;;;;;10.00;52.06;101215.25;4349131;32;34201;-91
2021/12/15 13:07:03;;;;;;;;;;;;;;;9.98;51.83;101209.22;4334178;32;35713;-92
2021/12/15 13:09:45;;;;;;;;;;;;;;;10.21;51.66;101216.44;4347045;32;34234;-90
2021/12/15 13:12:20;;;;;;;;;;;;;;;10.06;51.85;101212.22;4350085;32;34361;-91
2021/12/15 13:14:47;;;;;;;;;;;;;;;10.27;51.44;101201.88;4350688;32;33175;-91
2021/12/15 13:17:19;;;;;;;;;;;;;;;10.22;51.57;101207.53;4348925;32;35305;-90
2021/12/15 13:19:47;;;;;;;;;;;;;;;10.17;51.11;101211.44;4342182;32;35202;-90
2021/12/15 13:30:37;;;;;;;;;;;;;;;10.28;51.03;101208.91;4343445;32;34649;-91
2021/12/15 13:33:13;;;;;;;;;;;;;;;10.07;50.97;101208.59;4340889;32;32640;-91
2021/12/15 13:35:45;;;;;;;;;;;;;;;10.25;50.66;101204.66;4393374;32;33895;-92
2021/12/15 13:38:14;;;;;;;;;;;;;;;10.21;50.46;101204.97;4371184;32;33728;-92
2021/12/15 13:40:56;;;;;;;;;;;;;;;10.08;50.67;101214.75;4382121;32;33088;-91
2021/12/15 13:43:33;;;;;;;;;;;;;;;9.97;50.38;101212.81;4383872;32;33458;-92
2021/12/15 13:46:01;;;;;;;;;;;;;;;9.34;51.13;101221.62;4396891;32;33895;-89
2021/12/15 13:48:48;;;;;;;;;;;;;;;9.23;51.52;101216.19;4404836;32;34574;-92
2021/12/15 13:51:16;;;;;;;;;;;;;;;9.18;51.85;101226.28;4392108;32;33855;-91
2021/12/15 13:53:44;;;;;;;;;;;;;;;9.12;52.00;101226.69;4385043;32;33818;-92
2021/12/15 13:56:12;;;;;;;;;;;;;;;8.93;52.32;101231.47;4383458;32;33910;-90
2021/12/15 13:58:39;;;;;;;;;;;;;;;8.07;54.64;101232.59;4385218;32;34523;-91
2021/12/15 14:01:11;;;;;;;;;;;;;;;8.32;54.29;101232.81;4386410;32;33662;-92
2021/12/15 14:03:47;;;;;;;;;;;;;;;7.96;54.88;101230.59;4394528;32;32593;-89
2021/12/15 14:06:16;;;;;;;;;;;;;;;7.70;56.04;101249.00;4394643;32;34608;-90
2021/12/15 14:08:48;;;;;;;;;;;;;;;7.80;55.89;101237.78;4384990;32;35675;-89
2021/12/15 14:11:19;;;;;;;;;;;;;;;7.67;56.45;101244.75;4394978;32;33982;-91
2021/12/15 14:13:47;;;;;;;;;;;;;;;7.31;57.19;101249.56;4383318;32;31608;-92
2021/12/15 14:16:27;;;;;;;;;;;;;;;7.58;56.70;101244.44;4396981;32;34392;-91
2021/12/15 14:18:58;;;;;;;;;;;;;;;7.49;57.49;101250.25;4397419;32;33901;-91
2021/12/15 14:21:27;;;;;;;;;;;;;;;7.51;57.23;101249.25;4393783;32;35249;-90
2021/12/15 14:23:54;;;;;;;;;;;;;;;7.60;57.02;101247.84;4395317;32;33271;-90
2021/12/15 14:26:33;;;;;;;;;;;;;;;7.73;56.68;101252.31;4386924;32;33829;-91
2021/12/15 14:29:08;;;;;;;;;;;;;;;7.54;57.10;101249.06;4383888;32;34925;-90
2021/12/15 14:31:38;;;;;;;;;;;;;;;7.87;56.07;101246.19;4395690;32;33000;-91
2021/12/15 14:34:06;;;;;;;;;;;;;;;7.77;56.58;101250.34;4383441;32;32020;-90
2021/12/15 14:36:36;;;;;;;;;;;;;;;7.61;56.79;101244.25;4395964;32;33337;-90
2021/12/15 14:39:05;;;;;;;;;;;;;;;7.58;56.94;101241.78;4397253;32;35286;-90
2021/12/15 14:41:49;;;;;;;;;;;;;;;7.85;55.90;101234.84;4394269;32;35335;-92